Time;durP1;ratioP1;P1;durP2;ratioP2;P2;SDS_P1;SDS_P2;PMS_P1;PMS_P2;Temp;Humidity;BMP_temperature;BMP_pressure;BME280_temperature;BME280_humidity;BME280_pressure;Samples;Min_cycle;Max_cycle;Signal;HPM_P1;HPM_P2
2023/03/10 00:00:25;;;;;;;11.00;4.20;;;;;;;11.93;74.79;94418.59;4967337;28;20336;-74
2023/03/10 00:02:50;;;;;;;10.07;4.30;;;;;;;11.76;76.19;94423.63;4949474;28;20232;-73
2023/03/10 00:05:17;;;;;;;13.50;4.37;;;;;;;11.77;75.89;94425.22;4951916;28;20243;-72
2023/03/10 00:07:43;;;;;;;12.63;4.57;;;;;;;11.77;76.00;94422.63;4966254;28;20355;-72
2023/03/10 00:10:10;;;;;;;10.97;4.47;;;;;;;11.64;76.67;94421.91;4912174;29;20260;-73
2023/03/10 00:12:36;;;;;;;10.97;4.33;;;;;;;11.56;77.02;94430.84;4951932;28;20327;-72
2023/03/10 00:15:03;;;;;;;10.93;4.23;;;;;;;11.61;77.15;94428.38;4936185;28;20529;-73
2023/03/10 00:17:29;;;;;;;9.83;4.27;;;;;;;11.74;76.52;94428.28;4930196;28;20335;-72
2023/03/10 00:19:55;;;;;;;9.87;4.40;;;;;;;11.77;76.45;94429.66;4904772;29;20774;-73
2023/03/10 00:22:22;;;;;;;6.50;3.67;;;;;;;11.72;76.36;94422.47;4939515;28;20245;-73
2023/03/10 00:24:47;;;;;;;10.17;3.83;;;;;;;11.81;75.65;94417.72;4934231;28;20239;-73
2023/03/10 00:27:12;;;;;;;7.00;3.10;;;;;;;11.86;75.54;94421.28;4935598;28;20225;-73
2023/03/10 00:42:00;;;;;;;4.60;2.87;;;;;;;11.70;77.16;94421.84;4970320;28;20911;-76
2023/03/10 00:44:27;;;;;;;5.43;2.87;;;;;;;11.66;77.48;94414.63;4953570;28;20267;-76
2023/03/10 00:46:53;;;;;;;6.10;2.80;;;;;;;11.61;77.19;94415.28;4985534;28;20232;-76
2023/03/10 00:49:18;;;;;;;5.63;3.10;;;;;;;11.57;77.82;94416.75;4959978;28;20235;-76
2023/03/10 00:51:44;;;;;;;7.77;3.07;;;;;;;11.38;78.11;94417.75;4954199;28;20238;-77
2023/03/10 00:54:09;;;;;;;7.87;3.23;;;;;;;11.22;79.48;94416.50;4947233;28;20220;-76
2023/03/10 00:56:35;;;;;;;6.33;3.27;;;;;;;10.97;80.73;94414.88;4972806;28;20236;-76
2023/03/10 00:59:00;;;;;;;7.43;3.23;;;;;;;10.92;80.69;94414.72;4931133;28;20238;-77
2023/03/10 01:01:31;;;;;;;9.50;3.50;;;;;;;10.92;80.78;94412.09;4960717;28;20237;-76
2023/03/10 01:03:58;;;;;;;7.90;3.43;;;;;;;10.98;80.56;94414.69;4959978;28;20278;-76
2023/03/10 01:06:24;;;;;;;8.33;3.90;;;;;;;11.09;80.16;94419.22;4954308;28;20713;-76
2023/03/10 01:08:49;;;;;;;7.83;3.43;;;;;;;11.09;80.29;94419.22;4958374;28;20239;-75
2023/03/10 01:11:19;;;;;;;9.43;3.90;;;;;;;11.10;79.97;94412.16;4929131;28;20251;-76
2023/03/10 01:13:45;;;;;;;8.83;4.10;;;;;;;11.02;80.52;94425.50;4940949;28;20243;-76
2023/03/10 01:16:11;;;;;;;7.03;3.57;;;;;;;10.95;81.18;94416.91;4958389;28;20228;-76
2023/03/10 01:18:36;;;;;;;7.60;3.70;;;;;;;10.97;81.12;94417.50;4971799;28;20267;-76
2023/03/10 01:21:02;;;;;;;8.23;3.90;;;;;;;10.88;80.93;94416.97;4963653;28;20244;-76
2023/03/10 01:23:28;;;;;;;8.87;3.90;;;;;;;10.97;80.87;94420.91;4944893;28;20591;-75
2023/03/10 01:25:54;;;;;;;7.63;3.47;;;;;;;10.83;80.26;94407.16;4981660;28;20240;-76
2023/03/10 01:28:19;;;;;;;8.23;3.60;;;;;;;10.62;81.65;94402.28;4973849;28;20613;-76
2023/03/10 01:30:45;;;;;;;9.73;3.73;;;;;;;10.72;81.74;94407.81;4965587;28;20236;-77
2023/03/10 01:33:11;;;;;;;8.87;3.80;;;;;;;10.82;81.08;94397.69;4949695;28;20228;-76
2023/03/10 01:35:37;;;;;;;7.30;3.77;;;;;;;10.59;82.12;94405.31;4927341;28;20252;-76
2023/03/10 01:38:03;;;;;;;9.17;3.50;;;;;;;10.65;82.13;94401.03;4939119;28;20248;-75
2023/03/10 01:40:28;;;;;;;10.37;4.23;;;;;;;10.61;82.80;94405.09;4960125;28;20332;-76
2023/03/10 01:43:18;;;;;;;7.93;3.97;;;;;;;10.53;82.97;94411.38;4940178;28;20236;-76
2023/03/10 01:45:44;;;;;;;7.20;3.67;;;;;;;10.51;82.85;94410.78;4944494;28;20240;-76
2023/03/10 01:48:10;;;;;;;8.13;3.90;;;;;;;10.50;83.38;94409.19;4939375;28;20225;-76
2023/03/10 01:50:35;;;;;;;10.80;4.30;;;;;;;10.53;83.07;94423.69;4946444;28;20348;-75
2023/03/10 01:53:01;;;;;;;8.60;3.80;;;;;;;10.52;83.30;94416.81;4934526;28;20233;-76
2023/03/10 01:55:29;;;;;;;7.40;3.87;;;;;;;10.37;84.51;94424.97;4973912;28;20261;-76
2023/03/10 01:57:55;;;;;;;12.07;3.87;;;;;;;10.38;83.34;94421.34;4950573;28;20324;-76
2023/03/10 02:00:21;;;;;;;7.53;3.60;;;;;;;10.47;82.84;94422.69;4948459;28;20298;-76
2023/03/10 02:03:08;;;;;;;8.93;3.60;;;;;;;10.48;82.56;94416.47;4956423;28;20257;-77
2023/03/10 02:05:35;;;;;;;8.80;3.70;;;;;;;10.48;82.89;94426.94;4947727;28;20781;-77
2023/03/10 02:08:01;;;;;;;7.00;3.37;;;;;;;10.48;83.00;94416.47;4945587;28;20229;-76
2023/03/10 02:10:26;;;;;;;4.70;2.87;;;;;;;10.47;83.63;94421.88;4941692;28;20229;-77
2023/03/10 02:12:52;;;;;;;9.27;3.40;;;;;;;10.33;83.39;94413.31;4943798;28;20233;-76
2023/03/10 02:15:17;;;;;;;5.00;3.10;;;;;;;10.37;83.66;94416.31;4970203;28;20625;-75
2023/03/10 02:17:43;;;;;;;4.67;2.87;;;;;;;10.38;83.13;94423.16;4954683;28;20248;-77
2023/03/10 02:20:39;;;;;;;6.60;2.90;;;;;;;10.39;83.39;94422.16;4973693;28;20228;-77
2023/03/10 02:23:05;;;;;;;6.80;3.00;;;;;;;10.44;82.84;94420.50;4975794;28;20248;-77
2023/03/10 02:25:45;;;;;;;6.87;3.10;;;;;;;10.32;83.06;94419.56;4961426;28;20241;-77
2023/03/10 02:28:11;;;;;;;10.20;3.33;;;;;;;10.14;85.11;94409.81;4928833;28;20231;-77
2023/03/10 02:30:39;;;;;;;5.63;3.07;;;;;;;10.13;84.46;94417.84;4952039;28;20295;-75
2023/03/10 02:33:09;;;;;;;7.40;3.30;;;;;;;10.06;85.38;94417.84;4930777;28;20248;-75
2023/03/10 02:35:35;;;;;;;6.93;3.10;;;;;;;10.06;85.67;94423.09;4919030;28;20236;-76
2023/03/10 02:38:00;;;;;;;5.37;3.10;;;;;;;10.18;85.08;94417.22;4931564;28;20247;-77
2023/03/10 02:40:43;;;;;;;8.07;3.10;;;;;;;10.25;84.41;94415.38;4940780;28;20249;-76
2023/03/10 02:43:25;;;;;;;5.20;3.20;;;;;;;10.21;83.93;94412.38;4931906;28;20331;-76
2023/03/10 02:45:51;;;;;;;5.27;3.10;;;;;;;10.18;84.40;94412.78;4933184;28;20236;-76
2023/03/10 02:48:27;;;;;;;5.93;3.30;;;;;;;10.03;85.12;94412.25;4956137;28;20328;-76
2023/03/10 02:50:53;;;;;;;6.80;3.10;;;;;;;10.01;85.70;94414.25;4958841;28;20241;-77
2023/03/10 02:53:20;;;;;;;7.87;3.40;;;;;;;10.04;85.25;94413.84;4953003;28;20305;-76
2023/03/10 02:55:45;;;;;;;12.40;3.43;;;;;;;10.13;84.55;94417.84;4930831;28;20239;-77
2023/03/10 02:58:11;;;;;;;7.57;3.30;;;;;;;10.13;84.89;94417.84;4974096;28;20234;-77
2023/03/10 03:00:38;;;;;;;5.37;3.07;;;;;;;10.13;85.14;94410.00;4947940;28;20256;-75
2023/03/10 03:03:04;;;;;;;5.40;3.00;;;;;;;10.22;84.50;94424.47;4946428;28;20267;-76
2023/03/10 03:05:29;;;;;;;6.13;3.60;;;;;;;10.31;83.47;94419.78;4940889;28;20740;-76
2023/03/10 03:07:55;;;;;;;4.77;3.13;;;;;;;10.50;82.92;94424.91;4942286;28;20226;-76
2023/03/10 03:10:20;;;;;;;6.97;2.97;;;;;;;10.43;83.90;94421.50;4977489;28;20240;-76
2023/03/10 03:12:49;;;;;;;5.80;3.13;;;;;;;10.42;83.51;94417.28;4945118;28;20888;-76
2023/03/10 03:15:15;;;;;;;9.30;3.20;;;;;;;10.46;83.12;94417.69;4948633;28;20231;-76
2023/03/10 03:17:40;;;;;;;8.03;3.77;;;;;;;10.36;83.62;94418.16;4930486;28;20229;-77
2023/03/10 03:20:13;;;;;;;7.77;3.30;;;;;;;10.32;83.49;94421.38;4950267;28;20233;-77
2023/03/10 03:22:42;;;;;;;7.43;3.40;;;;;;;10.33;83.85;94410.72;4925118;28;20256;-76
2023/03/10 03:25:08;;;;;;;8.80;3.50;;;;;;;10.30;84.32;94416.34;4946576;28;20927;-76
2023/03/10 03:27:34;;;;;;;9.73;3.70;;;;;;;10.33;83.56;94399.44;4932055;28;20232;-76
2023/03/10 03:30:00;;;;;;;7.63;3.87;;;;;;;10.25;84.57;94405.72;4936976;28;20237;-76
2023/03/10 03:32:26;;;;;;;10.00;4.03;;;;;;;10.22;84.97;94406.16;4945654;28;20609;-76
2023/03/10 03:34:51;;;;;;;7.27;3.80;;;;;;;10.28;84.02;94404.50;4931818;28;20239;-76
2023/03/10 03:37:16;;;;;;;7.77;3.83;;;;;;;10.18;85.39;94393.69;4940717;28;20225;-75
2023/03/10 03:39:42;;;;;;;8.70;3.77;;;;;;;10.27;84.47;94392.44;4961964;28;20232;-76
2023/03/10 03:42:07;;;;;;;7.03;3.63;;;;;;;10.34;84.56;94395.81;4948550;28;20307;-77
2023/03/10 03:44:33;;;;;;;8.40;3.93;;;;;;;10.27;84.74;94395.84;4943745;28;20269;-76
2023/03/10 03:46:58;;;;;;;12.03;4.27;;;;;;;10.27;84.69;94408.13;4953349;28;20713;-76
2023/03/10 03:49:24;;;;;;;8.10;3.80;;;;;;;10.34;84.24;94401.06;4946207;28;20252;-76
2023/03/10 03:51:49;;;;;;;9.93;4.03;;;;;;;10.47;83.96;94414.84;4949856;28;20235;-76
2023/03/10 03:54:15;;;;;;;10.43;4.00;;;;;;;10.49;83.25;94417.22;4958196;28;20228;-76
2023/03/10 03:56:40;;;;;;;9.07;4.10;;;;;;;10.47;83.38;94414.84;4942250;28;20232;-76
2023/03/10 03:59:06;;;;;;;9.30;4.13;;;;;;;10.42;83.91;94406.00;4961655;28;20240;-76
2023/03/10 04:01:31;;;;;;;10.87;4.03;;;;;;;10.45;83.91;94403.78;4941521;28;20308;-76
2023/03/10 04:03:56;;;;;;;7.53;3.83;;;;;;;10.34;84.73;94408.91;4916407;28;20228;-76
2023/03/10 04:06:22;;;;;;;14.07;4.10;;;;;;;10.29;85.07;94406.91;4928658;28;20310;-76
2023/03/10 04:08:48;;;;;;;12.77;4.30;;;;;;;10.30;84.77;94407.69;4948335;28;20236;-76
2023/03/10 04:11:14;;;;;;;13.23;4.77;;;;;;;10.34;84.95;94407.06;4924821;28;20225;-76
2023/03/10 04:13:40;;;;;;;7.60;3.83;;;;;;;10.45;84.37;94411.63;4946477;28;20228;-76
2023/03/10 04:16:06;;;;;;;9.47;4.00;;;;;;;10.38;84.30;94410.88;4965974;28;20244;-76
2023/03/10 04:18:32;;;;;;;10.20;4.23;;;;;;;10.37;84.81;94406.66;4930708;28;20225;-76
2023/03/10 04:20:57;;;;;;;6.73;3.77;;;;;;;10.37;84.50;94408.44;4935894;28;20283;-76
2023/03/10 04:23:23;;;;;;;12.83;4.50;;;;;;;10.28;84.67;94400.06;4913835;28;20233;-76
2023/03/10 04:25:48;;;;;;;11.10;5.37;;;;;;;10.25;85.70;94394.44;4964357;28;20237;-76
2023/03/10 04:28:14;;;;;;;14.37;5.30;;;;;;;10.41;85.17;94388.72;4945529;28;20229;-77
2023/03/10 04:30:43;;;;;;;16.57;5.70;;;;;;;10.39;84.73;94391.53;4929392;28;20298;-76
2023/03/10 04:33:08;;;;;;;13.87;5.63;;;;;;;10.48;84.78;94399.97;4954256;28;20290;-76
2023/03/10 04:35:34;;;;;;;12.13;5.67;;;;;;;10.41;84.80;94399.97;4962131;28;20233;-76
2023/03/10 04:37:59;;;;;;;13.27;5.73;;;;;;;10.42;84.92;94391.13;4937732;28;20228;-76
2023/03/10 04:40:25;;;;;;;16.63;6.30;;;;;;;10.50;84.86;94388.28;4923959;28;20241;-76
2023/03/10 04:42:50;;;;;;;20.23;7.00;;;;;;;10.51;84.34;94389.84;4964921;28;20730;-76
2023/03/10 04:45:16;;;;;;;13.43;6.47;;;;;;;10.36;85.21;94384.13;4945701;28;20224;-76
2023/03/10 04:47:41;;;;;;;16.13;6.33;;;;;;;10.30;84.86;94387.56;4933523;28;20232;-77
2023/03/10 04:50:09;;;;;;;13.77;6.50;;;;;;;10.26;85.39;94377.75;4930605;28;20711;-77
2023/03/10 04:52:34;;;;;;;15.10;6.37;;;;;;;10.21;85.99;94370.53;4936188;28;20236;-76
2023/03/10 04:55:00;;;;;;;15.13;6.90;;;;;;;10.15;85.85;94374.78;4935701;28;20245;-77
2023/03/10 04:57:25;;;;;;;14.47;7.03;;;;;;;10.01;86.06;94378.47;4962528;28;20224;-78
2023/03/10 04:59:51;;;;;;;19.13;7.03;;;;;;;9.71;87.24;94376.59;4945568;28;20233;-77
2023/03/10 05:02:16;;;;;;;13.77;6.83;;;;;;;9.68;88.00;94377.00;4915163;28;20244;-77
2023/03/10 05:04:42;;;;;;;19.10;7.50;;;;;;;9.78;86.74;94366.91;4939721;28;20235;-76
2023/03/10 05:07:07;;;;;;;18.33;7.60;;;;;;;9.77;86.89;94358.25;4945948;28;20291;-76
2023/03/10 05:09:36;;;;;;;15.63;7.30;;;;;;;9.81;87.09;94356.06;4971675;28;20224;-76
2023/03/10 05:12:02;;;;;;;14.30;7.47;;;;;;;9.84;87.41;94353.03;4962246;28;20225;-76
2023/03/10 05:14:27;;;;;;;15.60;7.23;;;;;;;9.88;86.55;94356.81;4936641;28;20318;-76
2023/03/10 05:16:53;;;;;;;16.53;8.00;;;;;;;9.73;87.30;94354.47;4936270;28;20245;-76
2023/03/10 05:19:18;;;;;;;17.40;7.87;;;;;;;9.65;87.45;94359.94;4942554;28;20229;-76
2023/03/10 05:21:43;;;;;;;17.53;7.83;;;;;;;9.76;86.87;94366.31;4945153;28;20556;-76
2023/03/10 05:24:09;;;;;;;15.37;8.07;;;;;;;9.83;86.56;94360.06;4948450;28;20235;-77
2023/03/10 05:26:34;;;;;;;16.40;8.23;;;;;;;9.78;86.98;94348.63;4969742;28;20232;-77
2023/03/10 05:29:00;;;;;;;18.83;8.13;;;;;;;9.52;88.81;94352.16;4964481;28;20240;-76
2023/03/10 05:31:25;;;;;;;17.00;8.10;;;;;;;9.47;89.42;94346.75;4946202;28;20228;-76
2023/03/10 05:33:54;;;;;;;19.73;8.13;;;;;;;9.91;87.41;94345.97;4937250;28;20259;-78
2023/03/10 05:36:20;;;;;;;17.80;7.80;;;;;;;10.01;86.64;94346.28;4957542;28;20249;-75
2023/03/10 05:38:45;;;;;;;16.67;7.47;;;;;;;9.86;87.81;94335.31;4942846;28;20232;-76
2023/03/10 05:41:11;;;;;;;15.00;6.80;;;;;;;9.96;87.18;94336.47;4940506;28;20237;-76
2023/03/10 05:43:38;;;;;;;16.13;6.73;;;;;;;10.23;85.79;94337.13;4961481;28;20229;-77
2023/03/10 05:46:04;;;;;;;16.10;6.63;;;;;;;10.35;85.44;94342.47;4912368;28;20237;-75
2023/03/10 05:48:29;;;;;;;13.80;6.40;;;;;;;10.33;85.18;94350.53;4925225;28;20243;-76
2023/03/10 05:50:59;;;;;;;16.00;6.10;;;;;;;10.45;84.04;94346.25;4932902;28;20237;-76
2023/03/10 05:53:24;;;;;;;14.43;6.43;;;;;;;10.47;84.97;94332.94;4966311;28;20225;-76
2023/03/10 05:55:50;;;;;;;11.43;6.20;;;;;;;10.55;84.38;94337.91;4954391;28;20316;-76
2023/03/10 05:58:15;;;;;;;13.70;6.60;;;;;;;10.66;83.68;94334.59;4936747;28;20224;-76
2023/03/10 06:00:41;;;;;;;12.20;5.80;;;;;;;10.62;83.54;94329.00;4953830;28;20786;-76
2023/03/10 06:03:06;;;;;;;13.70;5.70;;;;;;;10.62;84.13;94336.03;4951358;28;20228;-76
2023/03/10 06:05:32;;;;;;;12.83;6.10;;;;;;;10.64;84.33;94344.47;4963492;28;20243;-76
2023/03/10 06:07:58;;;;;;;13.80;6.20;;;;;;;10.83;83.23;94339.09;4929162;28;20298;-76
2023/03/10 06:10:24;;;;;;;14.47;6.50;;;;;;;10.96;82.68;94338.16;4949526;28;20300;-75
2023/03/10 06:12:50;;;;;;;13.50;6.00;;;;;;;10.97;81.39;94346.81;4943515;28;20223;-76
2023/03/10 06:15:15;;;;;;;12.23;5.00;;;;;;;10.98;81.44;94345.78;4964921;28;20294;-76
2023/03/10 06:17:41;;;;;;;12.63;5.40;;;;;;;11.00;81.30;94347.19;4946485;28;20268;-77
2023/03/10 06:20:07;;;;;;;17.80;5.03;;;;;;;11.12;81.63;94349.88;4947563;28;20265;-77
2023/03/10 06:22:33;;;;;;;12.23;5.13;;;;;;;11.22;80.55;94345.75;4928934;28;20262;-77
2023/03/10 06:24:58;;;;;;;11.47;4.80;;;;;;;11.35;80.25;94348.22;4925324;28;20233;-76
2023/03/10 06:27:24;;;;;;;16.37;5.00;;;;;;;11.41;80.85;94349.19;4909479;28;20704;-77
2023/03/10 06:29:49;;;;;;;9.30;4.33;;;;;;;11.17;80.70;94352.66;4945804;28;20243;-77
2023/03/10 06:32:15;;;;;;;9.57;4.33;;;;;;;11.30;80.16;94355.94;4935552;28;20734;-76
2023/03/10 06:34:40;;;;;;;11.63;4.67;;;;;;;11.39;79.68;94353.84;4937051;28;20682;-77
2023/03/10 06:37:06;;;;;;;9.17;4.10;;;;;;;11.43;79.19;94349.78;4953865;28;20239;-77
2023/03/10 06:39:32;;;;;;;9.30;4.37;;;;;;;11.45;79.52;94343.28;4935811;28;20236;-76
2023/03/10 06:41:57;;;;;;;10.33;4.60;;;;;;;11.41;79.49;94346.56;4946701;28;20331;-77
2023/03/10 06:44:22;;;;;;;12.77;4.53;;;;;;;11.55;79.12;94349.84;4946891;28;20229;-79
2023/03/10 06:46:48;;;;;;;11.67;4.70;;;;;;;11.74;78.67;94354.06;4944356;28;20237;-77
2023/03/10 06:49:13;;;;;;;10.80;4.50;;;;;;;11.78;78.19;94352.59;4931489;28;20237;-76
2023/03/10 06:51:39;;;;;;;9.37;4.60;;;;;;;11.59;78.29;94348.38;4947254;28;20264;-74
2023/03/10 06:54:05;;;;;;;9.67;4.30;;;;;;;11.76;78.31;94344.97;4935987;28;20236;-74
2023/03/10 06:56:30;;;;;;;12.03;4.77;;;;;;;11.75;78.10;94351.22;4966046;28;20747;-75
2023/03/10 06:58:56;;;;;;;9.17;4.30;;;;;;;11.81;77.54;94363.47;4947270;28;20235;-74
2023/03/10 07:01:31;;;;;;;8.73;4.70;;;;;;;11.78;76.82;94356.03;4965047;28;20271;-75
2023/03/10 07:03:56;;;;;;;17.03;4.80;;;;;;;11.68;77.64;94350.50;4961574;28;20240;-76
2023/03/10 07:06:22;;;;;;;10.77;4.80;;;;;;;11.89;77.57;94350.03;4960489;28;20237;-76
2023/03/10 07:08:47;;;;;;;15.57;5.37;;;;;;;11.92;77.13;94362.72;4918599;28;20236;-75
2023/03/10 07:11:13;;;;;;;10.23;4.80;;;;;;;11.84;77.54;94356.97;4906183;28;20241;-75
2023/03/10 07:13:38;;;;;;;11.47;4.63;;;;;;;11.93;76.85;94345.97;4960066;28;20292;-76
2023/03/10 07:16:04;;;;;;;10.20;4.70;;;;;;;11.90;77.02;94338.53;4951922;28;20236;-76
2023/03/10 07:18:30;;;;;;;10.57;4.67;;;;;;;11.85;76.90;94335.78;4934234;28;20843;-75
2023/03/10 07:20:55;;;;;;;8.67;4.43;;;;;;;11.88;76.85;94329.28;4939837;28;20366;-76
2023/03/10 07:23:22;;;;;;;9.37;4.30;;;;;;;11.99;76.85;94331.16;4926073;28;20841;-76
2023/03/10 07:25:54;;;;;;;11.73;4.67;;;;;;;11.86;76.90;94329.53;4937721;28;20225;-76
2023/03/10 07:28:20;;;;;;;7.47;3.73;;;;;;;11.90;76.65;94328.03;4936093;28;20256;-74
2023/03/10 07:30:45;;;;;;;8.40;3.90;;;;;;;12.24;75.95;94325.78;4926393;28;20239;-75
2023/03/10 07:33:11;;;;;;;8.20;4.17;;;;;;;12.52;75.47;94332.00;4941580;28;20228;-75
2023/03/10 07:35:36;;;;;;;10.73;4.17;;;;;;;12.54;74.66;94335.19;4972009;28;20306;-75
2023/03/10 07:38:02;;;;;;;8.33;4.37;;;;;;;12.51;74.65;94334.84;4958431;28;20267;-76
2023/03/10 07:40:27;;;;;;;11.93;4.90;;;;;;;12.51;74.04;94322.53;4934000;28;20683;-75
2023/03/10 07:42:53;;;;;;;10.97;5.20;;;;;;;12.63;73.61;94325.97;4908045;28;20596;-75
2023/03/10 07:45:19;;;;;;;12.00;4.80;;;;;;;12.75;72.87;94315.50;4944048;28;20737;-75
2023/03/10 07:47:45;;;;;;;10.73;5.40;;;;;;;12.69;72.78;94311.94;4947114;28;20233;-76
2023/03/10 07:50:10;;;;;;;13.13;5.47;;;;;;;12.84;73.00;94304.44;4944698;28;20590;-76
2023/03/10 07:52:36;;;;;;;10.60;4.73;;;;;;;12.89;72.49;94298.47;4964188;28;20241;-75
2023/03/10 07:55:01;;;;;;;8.30;4.80;;;;;;;13.04;72.12;94290.91;4934041;28;20244;-75
2023/03/10 07:57:27;;;;;;;5.03;3.00;;;;;;;12.78;72.37;94288.75;4922422;28;20324;-76
2023/03/10 07:59:53;;;;;;;9.73;4.20;;;;;;;12.79;72.86;94285.13;4941682;28;20809;-75
2023/03/10 08:02:18;;;;;;;14.93;5.20;;;;;;;13.09;72.24;94279.75;4943337;28;20719;-75
2023/03/10 08:04:44;;;;;;;9.13;4.40;;;;;;;13.40;71.32;94276.72;4940761;28;20235;-75
2023/03/10 08:07:09;;;;;;;9.93;4.40;;;;;;;13.44;71.21;94267.38;4954768;28;20225;-75
2023/03/10 08:09:35;;;;;;;9.93;4.70;;;;;;;13.47;70.78;94270.31;4955536;28;20299;-75
2023/03/10 08:12:01;;;;;;;12.80;6.10;;;;;;;13.49;70.18;94275.38;4952186;28;20242;-75
2023/03/10 08:14:26;;;;;;;12.23;6.67;;;;;;;13.50;70.21;94269.06;4914838;28;20230;-75
2023/03/10 08:16:55;;;;;;;13.23;6.23;;;;;;;13.63;70.61;94257.47;4934913;28;20233;-74
2023/03/10 08:19:20;;;;;;;11.73;4.63;;;;;;;13.70;69.78;94266.03;4964005;28;20229;-74
2023/03/10 08:21:46;;;;;;;11.33;4.50;;;;;;;13.57;69.87;94258.41;4967034;28;20385;-75
2023/03/10 08:24:11;;;;;;;9.03;3.70;;;;;;;13.28;71.21;94242.59;4976344;28;20237;-75
2023/03/10 08:26:37;;;;;;;10.70;3.97;;;;;;;13.09;71.73;94243.78;4974897;28;20233;-76
2023/03/10 08:29:02;;;;;;;9.83;4.37;;;;;;;13.25;71.12;94226.50;4978750;28;20265;-74
2023/03/10 08:31:28;;;;;;;9.20;4.33;;;;;;;13.59;71.07;94225.56;4915182;28;20323;-76
2023/03/10 08:33:55;;;;;;;14.37;4.83;;;;;;;13.72;69.46;94235.03;4952640;28;20231;-77
2023/03/10 08:36:22;;;;;;;10.60;5.20;;;;;;;13.55;70.32;94224.47;4931961;28;20229;-73
2023/03/10 08:38:48;;;;;;;10.13;5.17;;;;;;;13.91;68.89;94220.63;4949449;28;20260;-74
2023/03/10 08:41:23;;;;;;;14.40;5.07;;;;;;;14.05;68.04;94216.66;4938556;28;20331;-77
2023/03/10 08:43:49;;;;;;;9.37;4.60;;;;;;;14.26;68.21;94209.94;4938338;28;20243;-75
2023/03/10 08:46:15;;;;;;;8.93;4.53;;;;;;;14.38;67.76;94214.09;4946329;28;20233;-75
2023/03/10 08:48:40;;;;;;;12.17;5.60;;;;;;;14.42;67.26;94212.59;4944535;28;20289;-75
2023/03/10 08:51:06;;;;;;;12.63;4.60;;;;;;;14.18;67.51;94203.22;4940041;28;20291;-75
2023/03/10 08:53:33;;;;;;;12.43;4.13;;;;;;;14.25;66.69;94200.41;4953237;28;20226;-75
2023/03/10 08:55:59;;;;;;;10.57;4.17;;;;;;;14.40;67.03;94198.84;4939693;28;20236;-75
2023/03/10 08:58:25;;;;;;;9.33;4.30;;;;;;;14.77;65.51;94194.66;4976426;28;20251;-76
2023/03/10 09:00:51;;;;;;;9.43;4.70;;;;;;;14.77;65.35;94199.13;4948855;28;20274;-76
2023/03/10 09:03:16;;;;;;;11.53;4.80;;;;;;;15.02;64.87;94198.69;4934965;28;20314;-75
2023/03/10 09:05:42;;;;;;;12.90;6.33;;;;;;;14.86;65.03;94192.41;4948077;28;20234;-75
2023/03/10 09:08:08;;;;;;;15.50;5.77;;;;;;;14.94;65.11;94193.81;4961730;28;20241;-75
2023/03/10 09:10:34;;;;;;;14.93;6.07;;;;;;;15.14;63.63;94184.31;4958799;28;20327;-73
2023/03/10 09:13:00;;;;;;;16.17;6.20;;;;;;;15.47;63.36;94183.44;4974756;28;20233;-76
2023/03/10 09:15:25;;;;;;;14.80;6.10;;;;;;;14.96;64.61;94181.19;4943148;28;20229;-75
2023/03/10 09:17:51;;;;;;;13.17;6.60;;;;;;;14.83;64.22;94174.47;4930086;28;20232;-75
2023/03/10 09:20:20;;;;;;;13.50;6.27;;;;;;;14.78;64.99;94183.06;4947363;28;20231;-74
2023/03/10 09:22:45;;;;;;;16.20;6.30;;;;;;;14.85;64.51;94180.28;4954411;28;20711;-75
2023/03/10 09:25:11;;;;;;;15.40;6.80;;;;;;;15.05;64.57;94174.44;4968837;28;20220;-75
2023/03/10 09:27:36;;;;;;;14.30;7.07;;;;;;;15.06;64.49;94160.25;4930095;28;20244;-75
2023/03/10 09:30:02;;;;;;;17.10;6.97;;;;;;;15.03;65.38;94158.88;4949549;28;20362;-74
2023/03/10 09:32:28;;;;;;;17.03;7.13;;;;;;;15.16;64.29;94155.09;4932849;28;20224;-73
2023/03/10 09:34:53;;;;;;;14.67;6.50;;;;;;;14.93;64.34;94160.59;4962615;28;20304;-76
2023/03/10 09:37:19;;;;;;;16.97;6.80;;;;;;;15.26;63.65;94157.84;4947535;28;20280;-74
2023/03/10 09:39:44;;;;;;;14.67;6.77;;;;;;;15.38;63.93;94161.94;4943758;28;20630;-74
2023/03/10 09:42:41;;;;;;;14.23;6.43;;;;;;;15.23;64.32;94153.06;4930500;28;20729;-75
2023/03/10 09:45:21;;;;;;;14.47;6.40;;;;;;;15.18;64.81;94147.72;4935273;28;20763;-75
2023/03/10 09:48:02;;;;;;;15.03;6.30;;;;;;;15.06;65.19;94149.69;4950608;28;20259;-75
2023/03/10 09:50:47;;;;;;;15.97;6.43;;;;;;;15.12;65.43;94148.69;4939271;28;20245;-75
2023/03/10 09:53:47;;;;;;;12.00;6.07;;;;;;;15.22;65.15;94140.91;4948354;28;20929;-74
2023/03/10 09:56:18;;;;;;;14.40;5.67;;;;;;;15.09;65.40;94134.22;4948733;28;20730;-74
2023/03/10 09:59:10;;;;;;;9.90;5.73;;;;;;;15.26;65.49;94136.75;4964718;28;20259;-74
2023/03/10 10:01:35;;;;;;;12.37;5.77;;;;;;;15.24;65.05;94123.00;4962184;28;20240;-76
2023/03/10 10:04:10;;;;;;;13.93;5.70;;;;;;;15.08;64.93;94127.34;4945492;28;20236;-76
2023/03/10 10:06:37;;;;;;;12.47;5.77;;;;;;;15.20;65.77;94124.56;4966217;28;20625;-78
2023/03/10 10:09:42;;;;;;;15.43;5.70;;;;;;;15.28;66.07;94121.50;4968486;28;20258;-77
2023/03/10 10:12:25;;;;;;;13.60;5.60;;;;;;;15.19;66.00;94128.25;4950229;28;20236;-77
2023/03/10 10:14:56;;;;;;;14.73;5.70;;;;;;;15.24;65.20;94120.38;4965917;28;20853;-76
2023/03/10 10:18:00;;;;;;;13.63;5.70;;;;;;;15.17;65.88;94114.50;4921864;28;20259;-77
2023/03/10 10:20:32;;;;;;;12.33;5.37;;;;;;;15.03;65.92;94097.47;4938547;28;20251;-75
2023/03/10 10:22:58;;;;;;;15.83;5.70;;;;;;;14.92;68.05;94101.84;4951691;28;20373;-75
2023/03/10 10:25:24;;;;;;;11.53;5.80;;;;;;;14.92;66.54;94098.41;4960649;28;20298;-78
2023/03/10 10:27:54;;;;;;;13.20;5.80;;;;;;;14.96;66.58;94096.88;4918969;28;20251;-76
2023/03/10 10:30:28;;;;;;;10.97;5.70;;;;;;;14.96;66.69;94102.94;4932340;28;20244;-75
2023/03/10 10:32:55;;;;;;;14.00;5.90;;;;;;;14.96;66.54;94096.88;4952430;28;20233;-76
2023/03/10 10:35:22;;;;;;;18.90;6.33;;;;;;;14.98;67.40;94090.31;4943981;28;20881;-78
2023/03/10 10:37:56;;;;;;;14.57;6.50;;;;;;;14.99;67.53;94091.91;4967328;28;20506;-75
2023/03/10 10:40:23;;;;;;;13.60;5.63;;;;;;;14.96;66.20;94088.97;4929245;28;20256;-77
2023/03/10 10:42:53;;;;;;;11.57;6.10;;;;;;;14.95;67.14;94095.28;4960944;28;20233;-78
2023/03/10 10:45:31;;;;;;;14.90;6.10;;;;;;;14.96;68.15;94081.06;4957263;28;20237;-77
2023/03/10 10:47:56;;;;;;;14.17;5.67;;;;;;;14.79;67.65;94084.56;4918742;28;20232;-75
2023/03/10 10:50:28;;;;;;;14.77;5.67;;;;;;;14.84;67.82;94082.00;4939196;28;20241;-76
2023/03/10 10:53:12;;;;;;;15.07;5.70;;;;;;;14.75;68.26;94085.31;4943622;28;20320;-76
2023/03/10 10:55:37;;;;;;;15.47;6.30;;;;;;;14.81;68.67;94087.75;4959266;28;20741;-76
2023/03/10 10:58:09;;;;;;;16.43;5.20;;;;;;;14.87;67.57;94085.19;4962145;28;20234;-76
2023/03/10 11:00:37;;;;;;;14.23;5.70;;;;;;;14.91;69.31;94086.28;4961345;28;20762;-76
2023/03/10 11:03:30;;;;;;;12.77;5.77;;;;;;;14.95;68.92;94077.63;4947564;28;20229;-75
2023/03/10 11:05:55;;;;;;;12.00;5.47;;;;;;;14.99;69.02;94072.66;4944304;28;20243;-76
2023/03/10 11:08:29;;;;;;;10.23;4.97;;;;;;;14.89;67.45;94065.44;4914745;28;20333;-77
2023/03/10 11:11:13;;;;;;;11.50;5.47;;;;;;;14.97;67.92;94072.13;4947446;28;20340;-76
2023/03/10 11:13:50;;;;;;;13.23;5.27;;;;;;;14.97;67.94;94067.66;4942649;28;20927;-78
2023/03/10 11:16:21;;;;;;;11.47;5.40;;;;;;;14.85;69.62;94059.84;4952228;28;20247;-77
2023/03/10 11:18:51;;;;;;;14.37;5.30;;;;;;;14.87;70.28;94046.47;4939225;28;20645;-77
2023/03/10 11:21:36;;;;;;;12.57;5.53;;;;;;;14.78;70.60;94027.66;4964403;28;20304;-76
2023/03/10 11:24:10;;;;;;;12.97;5.60;;;;;;;14.73;73.67;94014.44;4934217;28;20240;-76
2023/03/10 11:26:45;;;;;;;10.27;5.03;;;;;;;14.80;71.91;94009.78;4941577;28;20325;-76
2023/03/10 11:29:32;;;;;;;10.50;4.90;;;;;;;14.93;69.16;94000.66;4946539;28;20262;-77
2023/03/10 11:32:01;;;;;;;13.30;6.37;;;;;;;14.82;73.59;93999.78;4980139;28;20228;-77
2023/03/10 11:34:31;;;;;;;11.67;4.70;;;;;;;14.82;69.82;93999.78;4942585;28;20834;-78
2023/03/10 11:37:05;;;;;;;10.47;4.70;;;;;;;14.87;71.24;93990.34;4947983;28;20676;-75
2023/03/10 11:39:53;;;;;;;6.43;2.80;;;;;;;14.92;68.05;93990.38;4939138;28;20348;-76
2023/03/10 11:42:32;;;;;;;10.67;4.77;;;;;;;14.85;67.75;93972.16;4933433;28;21384;-76
2023/03/10 11:45:19;;;;;;;6.30;2.70;;;;;;;14.81;66.54;93971.84;4919448;28;20373;-76